Presteigne, United Kingdom
Current Conditions -  °F | °C
As of 4:50 AM on Monday 22 Dec 2014 (Local Time) from EGOS Reporting Station
Broken Clouds Broken Clouds  
Wind Chill: 54°   Ceiling: 2500
Heat Index: 54°   Visibility: 6mi
Dew Point: 48°   Wind: 24mph
Humidity: 82%   Direction: 240°WSW
Pressure: 29.91"   Gusts: NA
Location:  52.27°N, 3.01°W
Report Text: EGOS 220450Z AUTO 24021KT 9999 FEW020/// BKN025/// BKN036/// 12/09 Q1013
Loading
Personal Weather Stations






























Interactive Weather Map New forecast layout! Learn more

10-Day Weather Forecast

Advertisements
Track Severe Weather on mobile